createdAt,value
2023-02-05T00:01:41.683Z,9.25
2023-02-05T00:04:08.902Z,3.78
2023-02-05T00:06:36.584Z,6.13
2023-02-05T00:09:03.889Z,5.40
2023-02-05T00:11:31.541Z,3.60
2023-02-05T00:13:58.789Z,5.95
2023-02-05T00:16:26.412Z,3.67
2023-02-05T00:18:54.249Z,4.90
2023-02-05T00:21:23.431Z,4.18
2023-02-05T00:23:51.159Z,3.05
2023-02-05T00:26:19.226Z,3.63
2023-02-05T00:28:47.337Z,7.80
2023-02-05T00:31:21.282Z,5.18
2023-02-05T00:33:50.040Z,5.90
2023-02-05T00:36:18.788Z,2.63
2023-02-05T00:38:47.017Z,3.38
2023-02-05T00:41:15.240Z,3.30
2023-02-05T00:43:43.313Z,3.65
2023-02-05T00:46:12.521Z,2.72
2023-02-05T00:48:40.610Z,3.80
2023-02-05T00:51:10.528Z,2.55
2023-02-05T00:53:37.913Z,5.13
2023-02-05T00:56:05.816Z,5.60
2023-02-05T00:58:33.312Z,2.63
2023-02-05T01:01:00.940Z,3.97
2023-02-05T01:03:28.279Z,9.77
2023-02-05T01:05:57.082Z,4.95
2023-02-05T01:08:24.524Z,2.95
2023-02-05T01:10:52.481Z,3.35
2023-02-05T01:13:19.885Z,4.03
2023-02-05T01:15:47.537Z,5.88
2023-02-05T01:18:15.067Z,2.78
2023-02-05T01:20:43.708Z,3.28
2023-02-05T01:23:11.732Z,5.80
2023-02-05T01:25:39.388Z,3.03
2023-02-05T01:28:08.546Z,5.18
2023-02-05T01:30:36.249Z,2.92
2023-02-05T01:33:04.560Z,5.97
2023-02-05T01:35:32.809Z,5.82
2023-02-05T01:38:00.328Z,2.42
2023-02-05T01:40:28.031Z,4.25
2023-02-05T01:42:55.439Z,2.85
2023-02-05T01:45:22.943Z,3.35
2023-02-05T01:47:53.363Z,3.28
2023-02-05T01:50:34.219Z,2.83
2023-02-05T01:53:06.157Z,6.28
2023-02-05T01:55:39.746Z,6.45
2023-02-05T01:58:07.229Z,6.32
2023-02-05T02:00:34.895Z,4.65
2023-02-05T02:03:02.370Z,3.95
2023-02-05T02:05:30.260Z,3.63
2023-02-05T02:07:57.531Z,5.13
2023-02-05T02:10:26.467Z,3.95
2023-02-05T02:12:54.991Z,7.80
2023-02-05T02:15:25.770Z,4.40
2023-02-05T02:18:17.548Z,6.28
2023-02-05T02:20:47.234Z,5.95
2023-02-05T02:23:33.199Z,4.15
2023-02-05T02:26:43.717Z,6.28
2023-02-05T02:29:18.492Z,4.75
2023-02-05T02:32:01.588Z,5.15
2023-02-05T02:34:37.897Z,6.18
2023-02-05T02:37:22.700Z,4.45
2023-02-05T02:40:01.965Z,5.70
2023-02-05T02:42:39.070Z,5.88
2023-02-05T02:45:09.898Z,6.05
2023-02-05T02:48:05.993Z,6.32
2023-02-05T02:50:43.533Z,5.50
2023-02-05T02:53:21.620Z,5.55
2023-02-05T02:55:51.279Z,12.25
2023-02-05T02:59:01.228Z,8.85
2023-02-05T03:01:34.917Z,8.13
2023-02-05T03:04:26.368Z,8.25
2023-02-05T03:06:57.930Z,10.60
2023-02-05T03:09:32.716Z,7.47
2023-02-05T03:12:00.286Z,11.32
2023-02-05T03:14:28.109Z,11.88
2023-02-05T03:16:56.672Z,8.07
2023-02-05T03:19:25.071Z,7.57
2023-02-05T03:21:59.175Z,5.90
2023-02-05T03:24:27.276Z,7.95
2023-02-05T03:26:54.481Z,10.68
2023-02-05T03:29:35.490Z,11.00
2023-02-05T03:32:34.587Z,12.02
2023-02-05T03:35:26.564Z,10.48
2023-02-05T03:38:49.880Z,12.82
2023-02-05T03:41:47.091Z,16.67
2023-02-05T03:44:36.619Z,13.80
2023-02-05T03:47:22.336Z,11.32
2023-02-05T03:49:58.150Z,10.30
2023-02-05T03:52:37.660Z,9.77
2023-02-05T03:55:43.233Z,16.15
2023-02-05T03:58:48.557Z,14.45
2023-02-05T04:01:17.371Z,15.40
2023-02-05T04:03:46.243Z,13.40
2023-02-05T04:06:14.589Z,13.85
2023-02-05T04:08:44.190Z,17.48
2023-02-05T04:11:11.865Z,14.52
2023-02-05T04:13:40.242Z,14.13
2023-02-05T04:16:10.451Z,13.55
2023-02-05T04:18:38.372Z,10.38
2023-02-05T04:21:05.905Z,13.75
2023-02-05T04:23:36.468Z,17.55
2023-02-05T04:26:04.109Z,20.63
2023-02-05T04:28:36.944Z,22.08
2023-02-05T04:31:11.689Z,20.60
2023-02-05T04:33:41.640Z,23.23
2023-02-05T04:36:11.103Z,23.75
2023-02-05T04:38:39.118Z,23.83
2023-02-05T04:41:06.416Z,23.13
2023-02-05T04:43:34.172Z,20.02
2023-02-05T04:46:11.861Z,25.50
2023-02-05T04:48:39.906Z,21.92
2023-02-05T04:51:13.528Z,22.30
2023-02-05T04:53:41.670Z,25.35
2023-02-05T04:56:14.700Z,26.42
2023-02-05T04:58:43.366Z,28.60
2023-02-05T05:01:16.779Z,20.05
2023-02-05T05:03:44.727Z,26.20
2023-02-05T05:06:12.532Z,25.88
2023-02-05T05:08:40.362Z,19.08
2023-02-05T05:11:12.594Z,20.25
2023-02-05T05:13:40.529Z,19.15
2023-02-05T05:16:10.223Z,22.10
2023-02-05T05:18:39.270Z,17.15
2023-02-05T05:21:06.558Z,18.75
2023-02-05T05:23:35.128Z,19.52
2023-02-05T05:26:06.270Z,18.05
2023-02-05T05:28:34.960Z,14.80
2023-02-05T05:31:10.363Z,19.60
2023-02-05T05:33:38.082Z,19.95
2023-02-05T05:36:06.833Z,17.73
2023-02-05T05:38:35.056Z,20.88
2023-02-05T05:41:20.791Z,18.98
2023-02-05T05:43:48.433Z,17.40
2023-02-05T05:46:22.940Z,15.95
2023-02-05T05:48:53.025Z,17.00
2023-02-05T05:51:21.805Z,14.60
2023-02-05T05:53:49.792Z,17.00
2023-02-05T05:56:17.817Z,15.95
2023-02-05T05:58:46.301Z,16.42
2023-02-05T06:01:16.136Z,18.48
2023-02-05T06:03:43.630Z,20.60
2023-02-05T06:06:12.480Z,19.40
2023-02-05T06:08:40.019Z,17.58
2023-02-05T06:11:07.234Z,15.07
2023-02-05T06:13:35.086Z,15.70
2023-02-05T06:16:04.440Z,15.63
2023-02-05T06:18:32.107Z,19.33
2023-02-05T06:20:59.407Z,20.92
2023-02-05T06:23:26.930Z,21.48
2023-02-05T06:25:54.288Z,15.02
2023-02-05T06:28:21.799Z,17.65
2023-02-05T06:30:49.114Z,21.20
2023-02-05T06:33:16.831Z,19.63
2023-02-05T06:35:44.191Z,20.02
2023-02-05T06:38:11.698Z,20.15
2023-02-05T06:40:38.975Z,17.48
2023-02-05T06:43:06.537Z,16.90
2023-02-05T06:45:34.046Z,16.25
2023-02-05T06:48:01.781Z,16.60
2023-02-05T06:50:29.025Z,25.08
2023-02-05T06:52:56.907Z,21.70
2023-02-05T06:55:24.766Z,18.38
2023-02-05T06:57:52.291Z,18.58
2023-02-05T07:00:19.747Z,16.70
2023-02-05T07:02:47.263Z,20.15
2023-02-05T07:05:14.538Z,18.10
2023-02-05T07:07:42.100Z,17.67
2023-02-05T07:10:09.745Z,20.75
2023-02-05T07:12:37.446Z,17.73
2023-02-05T07:15:04.969Z,16.10
2023-02-05T07:17:32.554Z,19.38
2023-02-05T07:19:59.883Z,15.27
2023-02-05T07:22:27.438Z,18.23
2023-02-05T07:24:54.914Z,18.02
2023-02-05T07:27:22.419Z,15.55
2023-02-05T07:29:49.654Z,23.52
2023-02-05T07:32:17.149Z,21.83
2023-02-05T07:34:44.357Z,20.52
2023-02-05T07:37:13.312Z,20.63
2023-02-05T07:39:40.589Z,21.20
2023-02-05T07:42:08.227Z,16.08
2023-02-05T07:44:43.140Z,18.73
2023-02-05T07:47:10.659Z,16.58
2023-02-05T07:49:37.944Z,19.35
2023-02-05T07:52:06.822Z,16.75
2023-02-05T07:54:34.164Z,16.63
2023-02-05T07:57:02.585Z,15.05
2023-02-05T07:59:29.766Z,14.85
2023-02-05T08:01:57.317Z,13.93
2023-02-05T08:04:24.633Z,21.27
2023-02-05T08:06:52.240Z,19.30
2023-02-05T08:09:19.486Z,23.30
2023-02-05T08:11:47.009Z,18.17
2023-02-05T08:14:14.242Z,20.15
2023-02-05T08:16:41.741Z,18.88
2023-02-05T08:19:16.623Z,17.33
2023-02-05T08:21:44.469Z,17.75
2023-02-05T08:24:11.720Z,19.05
2023-02-05T08:26:40.343Z,14.02
2023-02-05T08:29:08.484Z,12.77
2023-02-05T08:31:37.083Z,20.13
2023-02-05T08:34:04.714Z,15.13
2023-02-05T08:36:32.214Z,16.92
2023-02-05T08:38:59.481Z,26.42
2023-02-05T08:41:27.013Z,20.70
2023-02-05T08:43:54.298Z,18.30
2023-02-05T08:46:25.477Z,15.90
2023-02-05T08:48:54.250Z,17.85
2023-02-05T08:51:23.132Z,20.00
2023-02-05T08:53:51.007Z,20.02
2023-02-05T08:56:20.188Z,19.40
2023-02-05T08:58:47.747Z,16.15
2023-02-05T09:01:20.054Z,19.73
2023-02-05T09:06:16.481Z,16.42
2023-02-05T09:08:43.881Z,18.45
2023-02-05T09:11:13.626Z,20.88
2023-02-05T09:13:41.288Z,16.23
2023-02-05T09:16:11.406Z,19.10
2023-02-05T09:18:38.976Z,19.30
2023-02-05T09:21:10.738Z,20.35
2023-02-05T09:23:38.318Z,18.50
2023-02-05T09:26:07.110Z,20.85
2023-02-05T09:28:34.378Z,22.15
2023-02-05T09:31:11.820Z,17.25
2023-02-05T09:33:39.752Z,19.48
2023-02-05T09:36:14.737Z,20.50
2023-02-05T09:38:42.508Z,17.85
2023-02-05T09:41:12.833Z,20.75
2023-02-05T09:43:50.836Z,21.88
2023-02-05T09:46:58.913Z,20.58
2023-02-05T09:49:30.006Z,22.00
2023-02-05T09:52:02.602Z,27.98
2023-02-05T09:54:35.415Z,26.65
2023-02-05T09:57:10.399Z,21.90
2023-02-05T09:59:42.134Z,24.77
2023-02-05T10:02:34.385Z,22.75
2023-02-05T10:05:02.676Z,20.55
2023-02-05T10:07:36.482Z,18.52
2023-02-05T10:10:44.808Z,19.77
2023-02-05T10:13:35.179Z,21.92
2023-02-05T10:16:23.313Z,24.48
2023-02-05T10:19:01.401Z,20.20
2023-02-05T10:21:28.626Z,16.52
2023-02-05T10:24:19.794Z,16.65
2023-02-05T10:26:51.766Z,14.50
2023-02-05T10:29:37.174Z,15.68
2023-02-05T10:32:19.591Z,15.45
2023-02-05T10:34:58.218Z,13.38
2023-02-05T10:37:51.206Z,13.93
2023-02-05T10:40:39.420Z,13.93
2023-02-05T10:43:29.849Z,14.40
2023-02-05T10:45:59.266Z,15.32
2023-02-05T10:48:46.291Z,14.65
2023-02-05T10:51:22.950Z,14.43
2023-02-05T10:53:50.247Z,14.75
2023-02-05T10:56:19.668Z,14.07
2023-02-05T10:58:56.303Z,15.60
2023-02-05T11:01:30.074Z,13.73
2023-02-05T11:04:17.222Z,18.38
2023-02-05T11:06:49.445Z,14.35
2023-02-05T11:12:16.304Z,18.30
2023-02-05T11:14:57.835Z,13.02
2023-02-05T11:17:36.697Z,14.60
2023-02-05T11:20:24.715Z,15.05
2023-02-05T11:23:22.591Z,12.07
2023-02-05T11:25:53.589Z,11.85
2023-02-05T11:28:32.894Z,15.57
2023-02-05T11:31:20.727Z,10.98
2023-02-05T11:33:49.083Z,8.40
2023-02-05T11:36:24.151Z,5.97
2023-02-05T11:38:57.260Z,6.05
2023-02-05T11:41:48.258Z,6.15
2023-02-05T11:44:32.773Z,3.58
2023-02-05T11:47:02.320Z,4.15
2023-02-05T11:49:36.862Z,6.05
2023-02-05T11:52:13.273Z,2.75
2023-02-05T11:54:47.614Z,0.95
2023-02-05T11:57:18.018Z,1.58
2023-02-05T12:00:18.374Z,3.38
2023-02-05T12:02:50.110Z,2.10
2023-02-05T12:05:31.844Z,2.75
2023-02-05T12:08:17.703Z,3.22
2023-02-05T12:10:48.299Z,1.92
2023-02-05T12:13:26.463Z,2.25
2023-02-05T12:16:19.151Z,2.50
2023-02-05T12:21:32.017Z,1.92
2023-02-05T12:24:28.777Z,1.40
2023-02-05T12:27:09.017Z,1.75
2023-02-05T12:30:00.449Z,1.30
2023-02-05T12:32:43.446Z,2.55
2023-02-05T12:35:54.835Z,2.22
2023-02-05T12:38:33.683Z,4.00
2023-02-05T12:41:06.842Z,0.63
2023-02-05T12:43:45.156Z,0.70
2023-02-05T12:47:06.252Z,1.17
2023-02-05T12:49:33.774Z,1.15
2023-02-05T12:52:21.208Z,2.38
2023-02-05T12:54:55.039Z,2.28
2023-02-05T12:57:45.552Z,2.28
2023-02-05T13:00:17.607Z,9.40
2023-02-05T13:03:03.666Z,9.45
2023-02-05T13:05:36.864Z,1.55
2023-02-05T13:08:17.562Z,1.52
2023-02-05T13:11:11.964Z,2.25
2023-02-05T13:14:01.271Z,1.73
2023-02-05T13:16:37.926Z,1.58
2023-02-05T13:19:22.193Z,1.45
2023-02-05T13:22:11.808Z,2.40
2023-02-05T13:25:05.143Z,5.30
2023-02-05T13:27:57.262Z,1.08
2023-02-05T13:30:36.306Z,3.03
2023-02-05T13:33:06.838Z,2.38
2023-02-05T13:35:43.984Z,2.45
2023-02-05T13:38:27.582Z,0.98
2023-02-05T13:41:25.524Z,3.05
2023-02-05T13:44:07.862Z,1.35
2023-02-05T13:49:11.361Z,3.88
2023-02-05T13:52:16.803Z,2.10
2023-02-05T13:54:47.293Z,1.63
2023-02-05T13:58:05.556Z,3.60
2023-02-05T14:00:34.553Z,3.63
2023-02-05T14:03:05.775Z,5.18
2023-02-05T14:05:35.691Z,0.77
2023-02-05T14:08:04.217Z,1.75
2023-02-05T14:10:34.731Z,1.75
2023-02-05T14:13:25.922Z,2.42
2023-02-05T14:15:54.170Z,1.38
2023-02-05T14:18:40.027Z,1.00
2023-02-05T14:21:32.515Z,1.98
2023-02-05T14:24:22.902Z,2.17
2023-02-05T14:26:53.741Z,1.85
2023-02-05T14:29:42.187Z,2.95
2023-02-05T14:32:13.913Z,4.70
2023-02-05T14:34:41.180Z,6.90
2023-02-05T14:37:25.863Z,5.78
2023-02-05T14:39:53.139Z,8.52
2023-02-05T14:42:22.143Z,5.07
2023-02-05T14:44:57.982Z,10.15
2023-02-05T14:47:29.127Z,11.82
2023-02-05T14:50:07.535Z,12.05
2023-02-05T14:52:46.317Z,7.72
2023-02-05T14:55:13.503Z,11.20
2023-02-05T14:57:45.816Z,9.52
2023-02-05T15:00:48.636Z,9.93
2023-02-05T15:03:25.609Z,10.85
2023-02-05T15:05:59.943Z,10.73
2023-02-05T15:08:36.730Z,9.13
2023-02-05T15:11:04.022Z,10.43
2023-02-05T15:13:32.460Z,10.77
2023-02-05T15:16:08.984Z,11.95
2023-02-05T15:18:50.675Z,10.90
2023-02-05T15:21:28.675Z,12.35
2023-02-05T15:24:05.493Z,8.30
2023-02-05T15:26:45.096Z,10.30
2023-02-05T15:29:14.361Z,11.30
2023-02-05T15:31:45.560Z,8.40
2023-02-05T15:34:30.732Z,11.25
2023-02-05T15:37:04.516Z,8.07
2023-02-05T15:39:49.080Z,9.57
2023-02-05T15:42:19.919Z,9.13
2023-02-05T15:44:47.465Z,10.63
2023-02-05T15:47:21.001Z,8.80
2023-02-05T15:49:51.937Z,13.75
2023-02-05T15:52:29.563Z,13.07
2023-02-05T15:55:00.328Z,11.43
2023-02-05T15:57:30.206Z,16.88
2023-02-05T16:00:00.609Z,14.05
2023-02-05T16:02:30.033Z,13.02
2023-02-05T16:04:58.974Z,14.07
2023-02-05T16:07:29.062Z,11.55
2023-02-05T16:09:59.360Z,12.55
2023-02-05T16:12:27.494Z,11.07
2023-02-05T16:15:02.389Z,9.90
2023-02-05T16:17:51.836Z,12.75
2023-02-05T16:20:43.292Z,7.70
2023-02-05T16:23:31.336Z,8.13
2023-02-05T16:26:01.999Z,8.02
2023-02-05T16:28:52.449Z,8.43
2023-02-05T16:31:24.201Z,14.48
2023-02-05T16:33:57.736Z,12.75
2023-02-05T16:36:30.814Z,10.68
2023-02-05T16:39:04.793Z,11.30
2023-02-05T16:41:37.306Z,13.02
2023-02-05T16:44:07.604Z,11.88
2023-02-05T16:46:36.591Z,10.52
2023-02-05T16:49:23.701Z,11.27
2023-02-05T16:51:51.180Z,11.07
2023-02-05T16:54:18.419Z,12.52
2023-02-05T16:56:54.207Z,8.90
2023-02-05T16:59:26.074Z,13.88
2023-02-05T17:01:54.082Z,14.15
2023-02-05T17:04:27.925Z,11.52
2023-02-05T17:06:58.016Z,10.88
2023-02-05T17:09:39.920Z,12.93
2023-02-05T17:14:53.774Z,10.27
2023-02-05T17:17:21.699Z,9.93
2023-02-05T17:20:07.466Z,8.20
2023-02-05T17:22:35.898Z,10.52
2023-02-05T17:25:05.715Z,9.57
2023-02-05T17:27:37.779Z,10.05
2023-02-05T17:30:16.004Z,9.68
2023-02-05T17:32:44.630Z,7.15
2023-02-05T17:35:22.232Z,7.38
2023-02-05T17:37:50.753Z,10.52
2023-02-05T17:40:19.627Z,8.55
2023-02-05T17:42:48.042Z,12.07
2023-02-05T17:45:20.576Z,14.02
2023-02-05T17:47:48.347Z,17.25
2023-02-05T17:50:16.713Z,16.25
2023-02-05T17:52:45.510Z,17.98
2023-02-05T17:55:15.248Z,20.95
2023-02-05T17:57:43.686Z,25.70
2023-02-05T18:00:16.855Z,23.60
2023-02-05T18:02:44.497Z,25.27
2023-02-05T18:05:14.824Z,29.40
2023-02-05T18:07:49.592Z,29.25
2023-02-05T18:10:25.401Z,24.98
2023-02-05T18:12:55.473Z,28.70
2023-02-05T18:15:24.755Z,29.52
2023-02-05T18:17:52.853Z,29.95
2023-02-05T18:20:21.246Z,26.40
2023-02-05T18:22:49.513Z,31.45
2023-02-05T18:25:18.428Z,28.05
2023-02-05T18:27:46.896Z,30.25
2023-02-05T18:30:14.369Z,29.30
2023-02-05T18:32:42.077Z,27.25
2023-02-05T18:35:14.393Z,35.53
2023-02-05T18:37:43.454Z,32.58
2023-02-05T18:40:12.709Z,30.83
2023-02-05T18:42:41.662Z,38.35
2023-02-05T18:45:09.689Z,36.30
2023-02-05T18:47:37.323Z,37.90
2023-02-05T18:50:05.170Z,39.70
2023-02-05T18:52:33.024Z,45.40
2023-02-05T18:55:00.577Z,51.50
2023-02-05T18:57:28.288Z,50.25
2023-02-05T18:59:55.722Z,50.88
2023-02-05T19:02:23.416Z,51.05
2023-02-05T19:04:55.772Z,54.58
2023-02-05T19:07:24.955Z,58.10
2023-02-05T19:09:52.410Z,61.88
2023-02-05T19:12:20.037Z,65.22
2023-02-05T19:14:49.688Z,67.53
2023-02-05T19:17:17.486Z,70.18
2023-02-05T19:19:45.004Z,71.45
2023-02-05T19:22:12.700Z,66.70
2023-02-05T19:24:40.590Z,64.32
2023-02-05T19:27:08.526Z,62.10
2023-02-05T19:29:39.824Z,61.83
2023-02-05T19:32:08.696Z,62.63
2023-02-05T19:34:39.078Z,61.35
2023-02-05T19:37:09.546Z,57.42
2023-02-05T19:39:37.880Z,67.60
2023-02-05T19:42:05.493Z,59.55
2023-02-05T19:44:32.790Z,61.92
2023-02-05T19:47:00.401Z,60.72
2023-02-05T19:49:27.714Z,57.35
2023-02-05T19:51:56.411Z,59.75
2023-02-05T19:54:23.866Z,52.80
2023-02-05T19:56:51.937Z,54.13
2023-02-05T19:59:19.672Z,57.15
2023-02-05T20:01:47.692Z,57.22
2023-02-05T20:04:22.362Z,56.55
2023-02-05T20:06:52.510Z,58.53
2023-02-05T20:09:20.416Z,64.35
2023-02-05T20:11:51.059Z,57.42
2023-02-05T20:14:18.906Z,58.15
2023-02-05T20:16:47.038Z,61.47
2023-02-05T20:19:17.362Z,65.13
2023-02-05T20:21:46.297Z,64.00
2023-02-05T20:24:16.315Z,62.85
2023-02-05T20:26:44.620Z,61.05
2023-02-05T20:29:30.688Z,62.17
2023-02-05T20:32:00.623Z,59.72
2023-02-05T20:34:30.939Z,61.17
2023-02-05T20:37:02.212Z,58.63
2023-02-05T20:39:30.371Z,56.60
2023-02-05T20:41:59.508Z,51.78
2023-02-05T20:44:28.771Z,54.58
2023-02-05T20:46:56.553Z,49.20
2023-02-05T20:49:24.585Z,48.92
2023-02-05T20:51:53.303Z,47.08
2023-02-05T20:54:21.803Z,49.30
2023-02-05T20:56:57.162Z,53.03
2023-02-05T20:59:29.085Z,47.63
2023-02-05T21:01:56.717Z,48.83
2023-02-05T21:04:23.973Z,49.28
2023-02-05T21:06:53.673Z,51.88
2023-02-05T21:09:21.682Z,47.90
2023-02-05T21:11:51.165Z,51.90
2023-02-05T21:14:18.410Z,56.30
2023-02-05T21:16:45.955Z,42.13
2023-02-05T21:19:13.500Z,53.20
2023-02-05T21:21:41.049Z,43.53
2023-02-05T21:24:12.671Z,40.45
2023-02-05T21:26:43.291Z,46.10
2023-02-05T21:29:18.952Z,39.92
2023-02-05T21:31:50.123Z,47.22
2023-02-05T21:34:24.200Z,46.20
2023-02-05T21:36:52.801Z,47.25
2023-02-05T21:39:23.026Z,44.35
2023-02-05T21:41:50.980Z,57.22
2023-02-05T21:44:18.351Z,49.70
2023-02-05T21:46:46.204Z,49.95
2023-02-05T21:49:13.665Z,55.63
2023-02-05T21:51:42.516Z,51.50
2023-02-05T21:54:11.671Z,55.80
2023-02-05T21:56:43.410Z,55.92
2023-02-05T21:59:12.376Z,52.42
2023-02-05T22:01:41.416Z,55.25
2023-02-05T22:04:12.055Z,50.30
2023-02-05T22:06:40.400Z,48.67
2023-02-05T22:09:10.174Z,46.25
2023-02-05T22:11:39.433Z,55.42
2023-02-05T22:14:07.564Z,50.15
2023-02-05T22:16:36.194Z,46.55
2023-02-05T22:19:04.749Z,55.60
2023-02-05T22:21:35.293Z,45.83
2023-02-05T22:24:04.191Z,50.75
2023-02-05T22:26:37.565Z,47.83
2023-02-05T22:29:07.505Z,48.92
2023-02-05T22:31:35.544Z,44.60
2023-02-05T22:34:03.775Z,44.35
2023-02-05T22:36:33.123Z,45.08
2023-02-05T22:39:00.873Z,50.00
2023-02-05T22:41:31.728Z,48.58
2023-02-05T22:44:00.146Z,45.40
2023-02-05T22:46:30.152Z,49.40
2023-02-05T22:48:59.085Z,52.85
2023-02-05T22:51:35.710Z,51.15
2023-02-05T22:54:04.372Z,47.50
2023-02-05T22:56:32.959Z,50.83
2023-02-05T22:59:02.968Z,49.95
2023-02-05T23:01:33.469Z,47.65
2023-02-05T23:04:02.314Z,46.30
2023-02-05T23:06:39.344Z,46.30
2023-02-05T23:09:08.586Z,44.40
2023-02-05T23:11:36.787Z,44.08
2023-02-05T23:14:05.183Z,46.85
2023-02-05T23:16:35.945Z,42.35
2023-02-05T23:19:07.100Z,49.75
2023-02-05T23:21:36.393Z,44.13
2023-02-05T23:24:04.020Z,44.15
2023-02-05T23:26:39.792Z,41.92
2023-02-05T23:29:07.288Z,40.00
2023-02-05T23:31:35.232Z,35.60
2023-02-05T23:34:02.716Z,37.58
2023-02-05T23:36:30.337Z,35.20
2023-02-05T23:38:57.598Z,35.33
2023-02-05T23:41:37.437Z,38.22
2023-02-05T23:44:14.702Z,34.00
2023-02-05T23:46:43.879Z,30.10
2023-02-05T23:49:11.911Z,36.63
2023-02-05T23:51:40.545Z,30.40
2023-02-05T23:54:09.348Z,34.33
2023-02-05T23:56:37.350Z,33.22
2023-02-05T23:59:05.972Z,32.17
